Port Huron, MI (48060)

6:21 AM EST on January 30, 2015 (GMT -0500)
Port Huron Township | Change Station
CLOSE
Current Station
Personal Weather Station
Location: Port Huron, MI
Elevation: 594 ft
Nearby Weather Stations

Elev 594 ft 43.00 °N, 82.48 °W | Updated 5 minutes ago

Overcast
Overcast
13.9 °F
Feels Like 14 °F
N
3.0
Wind Variable Wind from NNW
Gusts 11.0 mph

Today
High -- | Low -- °F
--% Chance of Precip.
Yesterday
High -- | Low -- °F
Precip. -- in
7:47 AM 5:39 PM
Waxing Gibbous, 82% visible
Pressure 30.27 in
Visibility 5.0 miles
Clouds Scattered Clouds 1200 ft
Scattered Clouds 1800 ft
Overcast 2700 ft
Windchill 14 °F
Dew Point 9 °F
Humidity 79%
Rainfall 0.08 in
Snow Depth Not available.
UV 0 out of 12
Pollen .10 out of 12
Air Quality Not available.
Flu Activity Not available.
METAR KPHN 301118Z AUTO 32013G22KT 5SM -SN SCT012 SCT018 OVC027 M10/M13 A3027 RMK AO2

More Conditions Fewer Conditions

Pressure 30.27 in
Visibility 5.0 miles
Clouds Scattered Clouds 1200 ft
Scattered Clouds 1800 ft
Overcast 2700 ft
Windchill 14 °F
Dew Point 9 °F
Humidity 79%
Rainfall 0.08 in
Snow Depth Not available.
UV 0 out of 12
Pollen .10 out of 12
Air Quality Not available.
Flu Activity Not available.
METAR KPHN 301118Z AUTO 32013G22KT 5SM -SN SCT012 SCT018 OVC027 M10/M13 A3027 RMK AO2

More Conditions Fewer Conditions

10-Day Weather Forecast

Almanac

Astronomy

Jan. 30, 2015 Rise Set
Actual Time
Civil Twilight
Nautical Twilight
Astronomical Twilight
Moon
Length of Visible Light
Length of Day
Tomorrow will be .
, % of the Moon is Illuminated

Today's Extremes

State Highs State Lows

Community

WunderPhotos

Upload Photos

1,791,737 photos uploaded!

WunderBlogs® & News

Nearby

Air Quality

  Air Quality AQ Index Pollutant
Not available.

Snow Depth

Station Depth Elevation

Earthquake Activity

City Distance Mag. Time & Date
Minimum magnitude displayed is 2.5.

Coastal Water Temperatures

Place Temperature

Nearby Weather Stations